Time;durP1;ratioP1;P1;durP2;ratioP2;P2;SDS_P1;SDS_P2;PMS_P1;PMS_P2;Temp;Humidity;BMP_temperature;BMP_pressure;BME280_temperature;BME280_humidity;BME280_pressure;Samples;Min_cycle;Max_cycle;Signal;HPM_P1;HPM_P2
2022/06/02 00:00:19;;;;;;;11.03;5.00;;;;;;;;;;735007;190;919306;-63
2022/06/02 00:02:50;;;;;;;6.20;5.50;;;;;;;;;;728435;190;918231;-63
2022/06/02 00:05:17;;;;;;;6.60;5.90;;;;;;;;;;736665;187;920326;-64
2022/06/02 00:07:43;;;;;;;6.60;6.00;;;;;;;;;;730045;190;919264;-64
2022/06/02 00:10:08;;;;;;;10.10;6.07;;;;;;;;;;726229;190;920488;-65
2022/06/02 00:12:38;;;;;;;6.73;5.97;;;;;;;;;;730697;189;920698;-64
2022/06/02 00:15:19;;;;;;;7.73;6.00;;;;;;;;;;735833;190;945835;-64
2022/06/02 00:17:46;;;;;;;9.20;6.00;;;;;;;;;;735852;189;919944;-65
2022/06/02 00:20:17;;;;;;;8.10;5.33;;;;;;;;;;721818;189;918635;-64
2022/06/02 00:22:49;;;;;;;6.53;5.10;;;;;;;;;;728149;190;919103;-64
2022/06/02 00:25:26;;;;;;;5.97;5.37;;;;;;;;;;727766;190;919712;-65
2022/06/02 00:27:52;;;;;;;21.55;6.25;;;;;;;;;;726621;190;919217;-65
2022/06/02 00:30:20;;;;;;;5.43;4.80;;;;;;;;;;737457;189;917327;-66
2022/06/02 00:33:01;;;;;;;6.40;4.70;;;;;;;;;;736528;191;918894;-67
2022/06/02 00:35:29;;;;;;;6.93;5.90;;;;;;;;;;731584;191;915776;-66
2022/06/02 00:37:57;;;;;;;7.57;5.27;;;;;;;;;;723325;189;915911;-64
2022/06/02 00:40:23;;;;;;;8.10;5.47;;;;;;;;;;729548;190;913855;-63
2022/06/02 00:43:04;;;;;;;6.93;4.93;;;;;;;;;;730623;191;914605;-63
2022/06/02 00:45:30;;;;;;;7.50;4.93;;;;;;;;;;725713;191;912108;-63
2022/06/02 00:48:11;;;;;;;7.13;5.20;;;;;;;;;;731513;189;918909;-64
2022/06/02 00:50:38;;;;;;;7.03;5.50;;;;;;;;;;720130;189;920512;-63
2022/06/02 00:53:04;;;;;;;8.53;5.83;;;;;;;;;;734528;191;635997;-63
2022/06/02 00:58:20;;;;;;;6.47;4.50;;;;;;;;;;731817;189;622258;-62
2022/06/02 01:00:45;;;;;;;7.90;5.93;;;;;;;;;;737757;189;916869;-62
2022/06/02 01:03:14;;;;;;;11.30;6.20;;;;;;;;;;720905;189;916455;-63
2022/06/02 01:05:46;;;;;;;6.70;5.93;;;;;;;;;;733704;189;915874;-62
2022/06/02 01:08:17;;;;;;;6.23;5.33;;;;;;;;;;739274;190;1018116;-62
2022/06/02 01:10:49;;;;;;;7.50;5.73;;;;;;;;;;719552;190;915938;-63
2022/06/02 01:13:15;;;;;;;8.63;5.50;;;;;;;;;;725072;189;915874;-63
2022/06/02 01:15:43;;;;;;;7.73;5.53;;;;;;;;;;727540;189;915628;-63
2022/06/02 01:18:23;;;;;;;7.40;5.60;;;;;;;;;;738753;189;913634;-63
2022/06/02 01:20:53;;;;;;;6.17;5.40;;;;;;;;;;738832;191;916260;-63
2022/06/02 01:23:36;;;;;;;6.20;4.90;;;;;;;;;;733076;190;919190;-62
2022/06/02 01:26:03;;;;;;;6.30;5.70;;;;;;;;;;730314;191;919164;-63
2022/06/02 01:28:31;;;;;;;12.50;6.07;;;;;;;;;;729942;190;1021471;-64
2022/06/02 01:30:57;;;;;;;8.00;6.47;;;;;;;;;;732001;191;918893;-62
2022/06/02 01:33:22;;;;;;;7.17;6.47;;;;;;;;;;739523;188;919707;-64
2022/06/02 01:35:49;;;;;;;9.10;6.80;;;;;;;;;;722482;189;612476;-64
2022/06/02 01:38:15;;;;;;;7.67;6.17;;;;;;;;;;732766;191;634963;-65
2022/06/02 01:40:56;;;;;;;7.03;6.33;;;;;;;;;;727198;191;629910;-65
2022/06/02 01:43:22;;;;;;;6.50;5.67;;;;;;;;;;733485;191;634147;-62
2022/06/02 01:45:54;;;;;;;5.83;5.23;;;;;;;;;;734211;189;629006;-63
2022/06/02 01:48:34;;;;;;;6.75;5.62;;;;;;;;;;723099;190;919530;-64
2022/06/02 01:51:01;;;;;;;8.43;5.70;;;;;;;;;;724149;189;963809;-65
2022/06/02 01:53:37;;;;;;;9.30;6.10;;;;;;;;;;731950;191;908908;-66
2022/06/02 01:56:04;;;;;;;11.97;5.67;;;;;;;;;;735116;191;913490;-66
2022/06/02 01:58:45;;;;;;;6.82;6.03;;;;;;;;;;723379;192;1024732;-66
2022/06/02 02:01:13;;;;;;;13.03;6.50;;;;;;;;;;726561;191;920372;-67
2022/06/02 02:03:39;;;;;;;6.57;5.90;;;;;;;;;;724696;192;953484;-67
2022/06/02 02:06:06;;;;;;;6.80;5.30;;;;;;;;;;721636;191;915471;-66
2022/06/02 02:08:31;;;;;;;7.00;5.13;;;;;;;;;;727039;191;916399;-67
2022/06/02 02:11:12;;;;;;;8.17;6.20;;;;;;;;;;722731;191;916131;-67
2022/06/02 02:13:44;;;;;;;8.17;5.20;;;;;;;;;;728358;191;919462;-67
2022/06/02 02:16:15;;;;;;;8.50;6.20;;;;;;;;;;726616;191;920423;-67
2022/06/02 02:18:45;;;;;;;6.20;5.47;;;;;;;;;;735713;190;918241;-67
2022/06/02 02:21:28;;;;;;;8.80;6.03;;;;;;;;;;740843;190;918751;-66
2022/06/02 02:23:53;;;;;;;9.57;4.87;;;;;;;;;;737705;189;917390;-67
2022/06/02 02:26:24;;;;;;;5.13;4.30;;;;;;;;;;725005;191;919101;-66
2022/06/02 02:28:52;;;;;;;8.20;5.23;;;;;;;;;;731784;189;1019749;-67
2022/06/02 02:31:23;;;;;;;8.00;5.20;;;;;;;;;;732355;190;918638;-66
2022/06/02 02:33:55;;;;;;;7.87;5.23;;;;;;;;;;735074;190;918739;-66
2022/06/02 02:36:24;;;;;;;5.10;4.60;;;;;;;;;;731643;190;919049;-66
2022/06/02 02:39:09;;;;;;;5.60;5.00;;;;;;;;;;730467;191;873034;-66
2022/06/02 02:41:36;;;;;;;8.90;5.47;;;;;;;;;;726121;189;918566;-66
2022/06/02 02:44:03;;;;;;;6.85;5.25;;;;;;;;;;729704;190;918986;-66
2022/06/02 02:46:30;;;;;;;11.53;5.13;;;;;;;;;;729695;190;918240;-66
2022/06/02 02:49:01;;;;;;;6.87;5.60;;;;;;;;;;734131;191;919912;-66
2022/06/02 02:51:44;;;;;;;5.97;3.97;;;;;;;;;;723972;190;919431;-66
2022/06/02 02:54:12;;;;;;;6.40;4.10;;;;;;;;;;725036;190;920283;-66
2022/06/02 02:56:38;;;;;;;9.10;5.37;;;;;;;;;;728790;190;919181;-66
2022/06/02 02:59:06;;;;;;;9.57;4.90;;;;;;;;;;733302;191;919299;-66
2022/06/02 03:01:38;;;;;;;5.40;4.37;;;;;;;;;;731875;189;919427;-66
2022/06/02 03:04:06;;;;;;;8.00;5.37;;;;;;;;;;722919;189;918946;-65
2022/06/02 03:06:31;;;;;;;12.00;5.20;;;;;;;;;;725431;189;919924;-65
2022/06/02 03:08:58;;;;;;;6.13;4.43;;;;;;;;;;731021;191;919062;-65
2022/06/02 03:11:26;;;;;;;5.90;5.27;;;;;;;;;;726618;189;919665;-65
2022/06/02 03:14:02;;;;;;;8.23;5.60;;;;;;;;;;725849;189;920712;-67
2022/06/02 03:16:28;;;;;;;6.40;5.50;;;;;;;;;;726026;189;918634;-66
2022/06/02 03:19:00;;;;;;;8.73;4.80;;;;;;;;;;734951;191;919009;-65
2022/06/02 03:21:33;;;;;;;5.90;4.80;;;;;;;;;;724614;189;919542;-65
2022/06/02 03:24:06;;;;;;;5.17;4.30;;;;;;;;;;725316;189;919646;-65
2022/06/02 03:26:39;;;;;;;5.60;4.87;;;;;;;;;;721921;189;1327053;-66
2022/06/02 03:29:06;;;;;;;8.73;5.60;;;;;;;;;;730191;189;919922;-65
2022/06/02 03:31:32;;;;;;;5.67;5.07;;;;;;;;;;733618;190;919233;-65
2022/06/02 03:33:59;;;;;;;6.20;5.37;;;;;;;;;;726264;190;918636;-65
2022/06/02 03:36:39;;;;;;;7.73;6.87;;;;;;;;;;728685;187;1021689;-65
2022/06/02 03:39:07;;;;;;;6.03;5.43;;;;;;;;;;733576;190;920186;-65
2022/06/02 03:41:35;;;;;;;6.73;6.00;;;;;;;;;;732549;190;919997;-66
2022/06/02 03:44:16;;;;;;;6.90;5.40;;;;;;;;;;726528;189;920231;-65
2022/06/02 03:46:45;;;;;;;7.20;5.70;;;;;;;;;;728103;189;919803;-65
2022/06/02 03:49:17;;;;;;;8.07;6.07;;;;;;;;;;724943;190;919431;-65
2022/06/02 03:51:49;;;;;;;10.07;6.70;;;;;;;;;;727263;191;920086;-65
2022/06/02 03:54:21;;;;;;;6.53;5.80;;;;;;;;;;735510;190;918749;-64
2022/06/02 03:56:52;;;;;;;11.90;7.40;;;;;;;;;;733065;190;920006;-65
2022/06/02 03:59:27;;;;;;;8.87;7.40;;;;;;;;;;726617;190;917254;-66
2022/06/02 04:01:59;;;;;;;9.80;7.50;;;;;;;;;;727387;190;919462;-65
2022/06/02 04:04:28;;;;;;;8.80;6.97;;;;;;;;;;726442;191;918748;-65
2022/06/02 04:06:59;;;;;;;9.43;8.43;;;;;;;;;;729926;189;911734;-64
2022/06/02 04:09:34;;;;;;;8.17;7.00;;;;;;;;;;735919;190;622646;-65
2022/06/02 04:14:40;;;;;;;9.33;8.30;;;;;;;;;;731737;191;618822;-65
2022/06/02 04:17:21;;;;;;;11.27;7.07;;;;;;;;;;729000;191;628343;-65
2022/06/02 04:22:27;;;;;;;7.60;6.80;;;;;;;;;;727043;191;919594;-66
2022/06/02 04:24:59;;;;;;;7.73;7.03;;;;;;;;;;730589;190;918981;-67
2022/06/02 04:27:26;;;;;;;8.00;6.77;;;;;;;;;;735131;191;919243;-65
2022/06/02 04:29:54;;;;;;;8.87;6.60;;;;;;;;;;722733;191;920234;-65
2022/06/02 04:32:21;;;;;;;9.40;7.57;;;;;;;;;;728612;191;918480;-65
2022/06/02 04:34:50;;;;;;;13.27;7.60;;;;;;;;;;732208;191;919218;-65
2022/06/02 04:37:16;;;;;;;8.70;7.80;;;;;;;;;;731572;189;919309;-65
2022/06/02 04:39:45;;;;;;;9.50;8.20;;;;;;;;;;736251;190;638132;-65
2022/06/02 04:42:13;;;;;;;9.90;7.60;;;;;;;;;;728486;190;919196;-65
2022/06/02 04:44:49;;;;;;;12.13;10.30;;;;;;;;;;736723;190;919370;-65
2022/06/02 04:47:15;;;;;;;12.80;9.60;;;;;;;;;;731943;190;644193;-65
2022/06/02 04:49:42;;;;;;;13.47;10.10;;;;;;;;;;732081;190;629152;-65
2022/06/02 04:52:12;;;;;;;16.13;11.20;;;;;;;;;;730705;190;920927;-66
2022/06/02 04:54:38;;;;;;;12.43;9.93;;;;;;;;;;739077;190;919337;-64
2022/06/02 04:57:05;;;;;;;16.87;10.60;;;;;;;;;;728736;190;916222;-65
2022/06/02 04:59:32;;;;;;;11.33;8.50;;;;;;;;;;727300;190;918714;-66
2022/06/02 05:02:01;;;;;;;10.23;9.10;;;;;;;;;;725865;189;938717;-64
2022/06/02 05:04:33;;;;;;;7.77;6.97;;;;;;;;;;726986;191;960388;-65
2022/06/02 05:07:00;;;;;;;10.10;7.47;;;;;;;;;;728328;190;933203;-66
2022/06/02 05:09:27;;;;;;;15.87;7.20;;;;;;;;;;726328;189;922632;-65
2022/06/02 05:11:54;;;;;;;8.23;6.90;;;;;;;;;;728117;189;914622;-66
2022/06/02 05:14:21;;;;;;;7.50;6.10;;;;;;;;;;733547;187;919770;-65
2022/06/02 05:17:01;;;;;;;7.67;6.70;;;;;;;;;;735754;191;644728;-66
2022/06/02 05:19:43;;;;;;;8.13;7.07;;;;;;;;;;730546;189;919092;-66
2022/06/02 05:22:27;;;;;;;9.00;6.37;;;;;;;;;;723172;190;880409;-65
2022/06/02 05:24:57;;;;;;;8.70;7.17;;;;;;;;;;730965;189;921291;-66
2022/06/02 05:27:22;;;;;;;8.83;7.20;;;;;;;;;;726125;189;918759;-66
2022/06/02 05:29:52;;;;;;;11.93;10.13;;;;;;;;;;731958;190;945629;-66
2022/06/02 05:32:24;;;;;;;12.57;11.23;;;;;;;;;;732017;191;896269;-66
2022/06/02 05:34:52;;;;;;;22.20;15.70;;;;;;;;;;726502;191;918824;-65
2022/06/02 05:37:20;;;;;;;21.97;15.83;;;;;;;;;;725719;191;918001;-66
2022/06/02 05:39:46;;;;;;;19.90;15.53;;;;;;;;;;726350;192;932747;-67
2022/06/02 05:42:15;;;;;;;29.63;16.60;;;;;;;;;;737669;191;920631;-67
2022/06/02 05:44:46;;;;;;;21.97;16.60;;;;;;;;;;728602;188;921084;-66
2022/06/02 05:47:14;;;;;;;26.63;17.47;;;;;;;;;;731319;191;626078;-67
2022/06/02 05:49:41;;;;;;;25.60;19.33;;;;;;;;;;727465;191;918747;-67
2022/06/02 05:52:17;;;;;;;21.30;18.60;;;;;;;;;;738837;183;919434;-68
2022/06/02 05:54:43;;;;;;;20.30;17.60;;;;;;;;;;723584;189;920695;-66
2022/06/02 05:57:09;;;;;;;22.27;15.93;;;;;;;;;;726969;189;949737;-67
2022/06/02 05:59:36;;;;;;;16.77;14.97;;;;;;;;;;726174;189;914780;-67
2022/06/02 06:02:03;;;;;;;14.87;12.98;;;;;;;;;;734109;190;911477;-67
2022/06/02 06:04:34;;;;;;;11.27;10.07;;;;;;;;;;725637;190;914716;-68
2022/06/02 06:07:01;;;;;;;10.80;8.98;;;;;;;;;;728087;189;914239;-68
2022/06/02 06:09:28;;;;;;;8.83;8.00;;;;;;;;;;736489;190;617989;-68
2022/06/02 06:12:11;;;;;;;14.03;8.33;;;;;;;;;;729252;189;616219;-68
2022/06/02 06:14:43;;;;;;;7.77;6.80;;;;;;;;;;742887;189;619532;-68
2022/06/02 06:17:11;;;;;;;11.03;8.33;;;;;;;;;;730228;190;916377;-67
2022/06/02 06:19:40;;;;;;;7.73;6.80;;;;;;;;;;724481;189;925168;-68
2022/06/02 06:22:15;;;;;;;8.90;6.60;;;;;;;;;;729889;189;916089;-67
2022/06/02 06:24:50;;;;;;;7.63;6.93;;;;;;;;;;737597;185;910450;-68
2022/06/02 06:27:17;;;;;;;6.03;5.40;;;;;;;;;;731572;191;916035;-68
2022/06/02 06:29:57;;;;;;;9.00;5.43;;;;;;;;;;719012;189;935747;-67
2022/06/02 06:32:29;;;;;;;5.17;4.10;;;;;;;;;;719545;191;915640;-68
2022/06/02 06:34:57;;;;;;;4.60;4.10;;;;;;;;;;726586;190;915546;-69
2022/06/02 06:37:28;;;;;;;5.97;4.93;;;;;;;;;;729479;191;918382;-68
2022/06/02 06:40:00;;;;;;;5.23;3.17;;;;;;;;;;728552;191;919663;-68
2022/06/02 06:42:26;;;;;;;5.33;3.10;;;;;;;;;;730289;189;919264;-68
2022/06/02 06:44:53;;;;;;;4.23;3.37;;;;;;;;;;723183;190;919467;-67
2022/06/02 06:47:22;;;;;;;4.37;3.37;;;;;;;;;;736606;191;918799;-70
2022/06/02 06:49:51;;;;;;;3.87;3.30;;;;;;;;;;735450;191;914724;-69
2022/06/02 06:52:18;;;;;;;3.97;3.20;;;;;;;;;;730756;191;1021019;-71
2022/06/02 06:54:47;;;;;;;3.33;3.03;;;;;;;;;;734718;187;918972;-69
2022/06/02 06:57:13;;;;;;;5.43;3.83;;;;;;;;;;738274;191;919196;-69
2022/06/02 06:59:42;;;;;;;7.33;3.67;;;;;;;;;;726707;191;919835;-70
2022/06/02 07:02:12;;;;;;;5.67;4.80;;;;;;;;;;726337;190;1014492;-69
2022/06/02 07:04:43;;;;;;;4.60;3.70;;;;;;;;;;731328;190;919432;-70
2022/06/02 07:07:15;;;;;;;6.70;4.73;;;;;;;;;;725924;190;918575;-70
2022/06/02 07:09:56;;;;;;;6.23;4.10;;;;;;;;;;738870;190;918928;-70
2022/06/02 07:14:58;;;;;;;7.10;4.43;;;;;;;;;;728307;191;1010169;-70
2022/06/02 07:17:41;;;;;;;6.27;4.17;;;;;;;;;;727066;190;919138;-69
2022/06/02 07:20:22;;;;;;;4.97;4.40;;;;;;;;;;727289;189;955468;-69
2022/06/02 07:22:48;;;;;;;8.47;4.90;;;;;;;;;;726345;189;919482;-70
2022/06/02 07:25:16;;;;;;;4.90;4.12;;;;;;;;;;724104;189;918476;-68
2022/06/02 07:27:45;;;;;;;6.90;4.40;;;;;;;;;;733621;191;911118;-69
2022/06/02 07:30:25;;;;;;;6.40;3.93;;;;;;;;;;728285;191;918562;-69
2022/06/02 07:33:02;;;;;;;9.37;5.97;;;;;;;;;;725974;191;918615;-68
2022/06/02 07:35:29;;;;;;;4.80;3.73;;;;;;;;;;712876;194;1122499;-67
2022/06/02 07:37:59;;;;;;;5.80;3.80;;;;;;;;;;722758;190;918255;-67
2022/06/02 07:40:29;;;;;;;5.77;3.73;;;;;;;;;;728808;189;918025;-67
2022/06/02 07:42:58;;;;;;;4.90;4.30;;;;;;;;;;709523;197;918245;-68
2022/06/02 07:45:25;;;;;;;5.47;4.87;;;;;;;;;;730160;191;917454;-68
2022/06/02 07:47:55;;;;;;;5.63;4.47;;;;;;;;;;729515;189;919164;-68
2022/06/02 07:50:25;;;;;;;5.35;3.87;;;;;;;;;;737618;191;913954;-68
2022/06/02 07:52:51;;;;;;;5.43;4.10;;;;;;;;;;729997;190;916018;-67
2022/06/02 07:55:37;;;;;;;7.70;3.57;;;;;;;;;;726429;187;918987;-68
2022/06/02 07:58:20;;;;;;;6.27;4.17;;;;;;;;;;728376;189;918416;-70
2022/06/02 08:00:43;;;;;;;6.23;3.70;;;;;;;;;;723533;191;1041678;-69
2022/06/02 08:03:14;;;;;;;5.30;4.17;;;;;;;;;;720485;191;918773;-69
2022/06/02 08:05:42;;;;;;;5.10;4.43;;;;;;;;;;727233;191;919132;-69
2022/06/02 08:08:14;;;;;;;7.83;4.50;;;;;;;;;;732075;191;919165;-69
2022/06/02 08:10:44;;;;;;;6.67;4.53;;;;;;;;;;729196;190;918840;-69
2022/06/02 08:13:27;;;;;;;10.60;4.00;;;;;;;;;;729957;191;919080;-69
2022/06/02 08:15:54;;;;;;;5.20;4.03;;;;;;;;;;732223;188;918032;-69
2022/06/02 08:18:26;;;;;;;7.63;3.87;;;;;;;;;;726784;190;918949;-69
2022/06/02 08:20:52;;;;;;;4.97;3.83;;;;;;;;;;734756;190;918523;-69
2022/06/02 08:23:19;;;;;;;5.50;4.07;;;;;;;;;;735017;190;921207;-69
2022/06/02 08:26:04;;;;;;;5.77;4.20;;;;;;;;;;727946;190;919752;-70
2022/06/02 08:28:32;;;;;;;7.47;4.10;;;;;;;;;;730059;189;919123;-69
2022/06/02 08:31:00;;;;;;;7.40;4.27;;;;;;;;;;736883;188;918400;-70
2022/06/02 08:33:29;;;;;;;7.18;4.32;;;;;;;;;;731611;190;919523;-70
2022/06/02 08:36:10;;;;;;;6.77;4.50;;;;;;;;;;727749;190;921405;-72
2022/06/02 08:38:50;;;;;;;10.80;4.87;;;;;;;;;;729437;190;915613;-70
2022/06/02 08:41:28;;;;;;;7.63;4.47;;;;;;;;;;726067;190;939180;-69
2022/06/02 08:43:54;;;;;;;8.43;5.20;;;;;;;;;;724308;189;915575;-69
2022/06/02 08:46:26;;;;;;;5.70;4.90;;;;;;;;;;731962;187;915154;-69
2022/06/02 08:48:56;;;;;;;6.37;5.33;;;;;;;;;;734504;190;919734;-71
2022/06/02 08:51:25;;;;;;;7.77;4.67;;;;;;;;;;722398;191;919423;-70
2022/06/02 08:54:04;;;;;;;6.20;4.60;;;;;;;;;;726623;189;918809;-69
2022/06/02 08:56:36;;;;;;;9.55;5.37;;;;;;;;;;733729;191;918857;-71
2022/06/02 08:59:03;;;;;;;6.00;5.00;;;;;;;;;;718203;191;918916;-72
2022/06/02 09:01:43;;;;;;;6.47;4.60;;;;;;;;;;730546;191;918726;-71
2022/06/02 09:04:24;;;;;;;9.23;4.47;;;;;;;;;;734138;191;919030;-70
2022/06/02 09:07:07;;;;;;;7.20;4.50;;;;;;;;;;736302;189;919276;-72
2022/06/02 09:09:39;;;;;;;5.03;4.53;;;;;;;;;;744759;189;919202;-72
2022/06/02 09:12:12;;;;;;;6.43;4.33;;;;;;;;;;726531;190;918740;-70
2022/06/02 09:14:43;;;;;;;6.90;4.50;;;;;;;;;;727768;189;918258;-72
2022/06/02 09:17:15;;;;;;;6.93;4.10;;;;;;;;;;726517;191;919525;-72
2022/06/02 09:19:46;;;;;;;8.60;4.37;;;;;;;;;;730797;189;1124352;-72
2022/06/02 09:22:27;;;;;;;6.03;4.70;;;;;;;;;;733833;191;919123;-72
2022/06/02 09:24:58;;;;;;;7.23;4.03;;;;;;;;;;740179;189;921066;-71
2022/06/02 09:27:29;;;;;;;5.90;4.10;;;;;;;;;;729545;190;919266;-73
2022/06/02 09:29:57;;;;;;;5.18;3.92;;;;;;;;;;729192;189;918828;-70
2022/06/02 09:32:23;;;;;;;45.20;4.80;;;;;;;;;;729886;189;917205;-72
2022/06/02 09:34:59;;;;;;;5.45;4.22;;;;;;;;;;738672;188;918057;-71
2022/06/02 09:37:26;;;;;;;5.50;4.37;;;;;;;;;;731091;190;919593;-71
2022/06/02 09:39:58;;;;;;;5.77;4.57;;;;;;;;;;721060;189;950635;-73
2022/06/02 09:42:29;;;;;;;5.53;4.30;;;;;;;;;;728881;189;918012;-73
2022/06/02 09:45:09;;;;;;;10.30;4.50;;;;;;;;;;728023;190;918840;-72
2022/06/02 09:47:34;;;;;;;6.10;4.50;;;;;;;;;;734019;190;912229;-74
2022/06/02 09:50:02;;;;;;;5.40;4.10;;;;;;;;;;729588;189;919242;-71
2022/06/02 09:52:43;;;;;;;6.32;4.00;;;;;;;;;;727845;189;923243;-71
2022/06/02 09:55:10;;;;;;;5.50;3.83;;;;;;;;;;730072;187;921089;-71
2022/06/02 10:00:20;;;;;;;7.80;4.30;;;;;;;;;;730151;191;918891;-73
2022/06/02 10:03:02;;;;;;;6.20;4.53;;;;;;;;;;721553;193;917584;-74
2022/06/02 10:05:34;;;;;;;7.60;4.03;;;;;;;;;;736364;189;919298;-69
2022/06/02 10:08:00;;;;;;;6.20;4.70;;;;;;;;;;728868;189;953333;-72
2022/06/02 10:10:27;;;;;;;6.57;4.40;;;;;;;;;;729196;190;918224;-70
2022/06/02 10:12:59;;;;;;;5.70;4.30;;;;;;;;;;733934;189;918258;-69
2022/06/02 10:15:30;;;;;;;6.80;4.50;;;;;;;;;;730598;189;918016;-73
2022/06/02 10:18:06;;;;;;;5.70;4.30;;;;;;;;;;730058;189;919228;-72
2022/06/02 10:20:38;;;;;;;5.33;3.60;;;;;;;;;;726170;190;1021074;-73
2022/06/02 10:23:06;;;;;;;4.80;4.07;;;;;;;;;;725020;190;928777;-73
2022/06/02 10:25:38;;;;;;;6.40;3.95;;;;;;;;;;727171;191;920716;-71
2022/06/02 10:28:03;;;;;;;5.20;4.37;;;;;;;;;;734767;189;915676;-71
2022/06/02 10:30:29;;;;;;;5.67;3.90;;;;;;;;;;725893;189;1026931;-74
2022/06/02 10:33:01;;;;;;;5.87;4.53;;;;;;;;;;724953;191;922676;-69
2022/06/02 10:35:42;;;;;;;11.73;4.57;;;;;;;;;;732318;187;916058;-71
2022/06/02 10:38:27;;;;;;;6.43;5.05;;;;;;;;;;733085;189;919532;-68
2022/06/02 10:41:00;;;;;;;9.40;4.20;;;;;;;;;;729982;190;919284;-70
2022/06/02 10:43:32;;;;;;;5.00;4.27;;;;;;;;;;732312;189;918583;-71
2022/06/02 10:46:13;;;;;;;8.40;4.43;;;;;;;;;;730818;188;918480;-74
2022/06/02 10:48:53;;;;;;;6.93;4.20;;;;;;;;;;732645;190;918177;-73
2022/06/02 10:51:25;;;;;;;4.70;4.17;;;;;;;;;;731456;189;918731;-73
2022/06/02 10:53:54;;;;;;;4.83;3.83;;;;;;;;;;725014;190;920044;-71
2022/06/02 10:56:22;;;;;;;6.25;4.35;;;;;;;;;;729200;190;918104;-72
2022/06/02 10:58:54;;;;;;;6.50;5.30;;;;;;;;;;736299;190;919586;-70
2022/06/02 11:01:23;;;;;;;6.10;4.57;;;;;;;;;;729377;189;920345;-72
2022/06/02 11:03:55;;;;;;;8.27;4.50;;;;;;;;;;732356;189;919357;-73
2022/06/02 11:06:28;;;;;;;6.35;4.30;;;;;;;;;;732324;189;917924;-74
2022/06/02 11:08:58;;;;;;;8.32;6.25;;;;;;;;;;730974;190;915894;-73
2022/06/02 11:11:27;;;;;;;9.17;4.20;;;;;;;;;;738641;187;920998;-74
2022/06/02 11:13:57;;;;;;;7.93;4.90;;;;;;;;;;728224;190;921649;-74
2022/06/02 11:16:38;;;;;;;5.87;4.60;;;;;;;;;;726614;189;918134;-72
2022/06/02 11:19:08;;;;;;;6.17;4.80;;;;;;;;;;722737;190;917640;-75
2022/06/02 11:21:46;;;;;;;7.20;4.70;;;;;;;;;;729732;191;919695;-74
2022/06/02 11:24:24;;;;;;;6.83;4.50;;;;;;;;;;729910;191;916564;-75
2022/06/02 11:27:04;;;;;;;4.70;4.13;;;;;;;;;;733892;191;938866;-71
2022/06/02 11:29:43;;;;;;;6.67;6.17;;;;;;;;;;741232;187;917172;-75
2022/06/02 11:32:11;;;;;;;5.80;4.40;;;;;;;;;;739135;189;920420;-75
2022/06/02 11:34:43;;;;;;;4.70;3.80;;;;;;;;;;723292;192;1019497;-73
2022/06/02 11:37:09;;;;;;;5.87;3.80;;;;;;;;;;729615;191;920384;-72
2022/06/02 11:39:50;;;;;;;11.40;5.00;;;;;;;;;;731093;191;919559;-70
2022/06/02 11:42:16;;;;;;;4.10;3.53;;;;;;;;;;730898;189;920167;-76
2022/06/02 11:44:51;;;;;;;5.50;3.73;;;;;;;;;;732154;191;918192;-74
2022/06/02 11:47:31;;;;;;;5.03;4.50;;;;;;;;;;727110;192;922956;-76
2022/06/02 11:50:15;;;;;;;5.80;4.00;;;;;;;;;;729608;190;983917;-75
2022/06/02 11:52:58;;;;;;;5.40;4.40;;;;;;;;;;727312;190;652543;-74
2022/06/02 11:55:24;;;;;;;3.97;3.10;;;;;;;;;;723163;191;915757;-76
2022/06/02 11:58:10;;;;;;;5.00;4.10;;;;;;;;;;722947;191;1018896;-75
2022/06/02 12:00:37;;;;;;;8.27;3.83;;;;;;;;;;727781;191;919157;-75
2022/06/02 12:03:08;;;;;;;5.37;4.80;;;;;;;;;;725797;190;918852;-76
2022/06/02 12:05:40;;;;;;;6.60;3.70;;;;;;;;;;733856;189;918285;-76
2022/06/02 12:08:07;;;;;;;5.83;4.50;;;;;;;;;;737608;190;616043;-76
2022/06/02 12:10:41;;;;;;;4.63;3.80;;;;;;;;;;724999;190;918277;-75
2022/06/02 12:13:09;;;;;;;4.63;3.67;;;;;;;;;;732709;189;622885;-76
2022/06/02 12:15:52;;;;;;;6.03;3.77;;;;;;;;;;729417;190;918916;-76
2022/06/02 12:18:35;;;;;;;4.87;2.95;;;;;;;;;;730293;189;920783;-76
2022/06/02 12:21:18;;;;;;;6.33;3.40;;;;;;;;;;731500;190;629775;-77
2022/06/02 12:24:04;;;;;;;7.60;3.50;;;;;;;;;;720222;189;919367;-77
2022/06/02 12:26:31;;;;;;;5.27;2.80;;;;;;;;;;727097;190;917792;-77
2022/06/02 12:28:57;;;;;;;4.13;3.10;;;;;;;;;;733604;191;918135;-76
2022/06/02 12:31:37;;;;;;;6.50;3.50;;;;;;;;;;735684;189;919343;-77
2022/06/02 12:34:10;;;;;;;5.50;3.67;;;;;;;;;;737778;190;918415;-76
2022/06/02 12:36:52;;;;;;;4.30;3.70;;;;;;;;;;739433;189;621020;-76
2022/06/02 12:39:24;;;;;;;5.90;3.30;;;;;;;;;;731214;190;697878;-77
2022/06/02 12:41:53;;;;;;;11.73;3.97;;;;;;;;;;725436;189;1021762;-76
2022/06/02 12:44:19;;;;;;;4.63;3.30;;;;;;;;;;733896;191;815798;-77
2022/06/02 12:46:51;;;;;;;3.53;3.10;;;;;;;;;;719709;189;918587;-77
2022/06/02 12:49:24;;;;;;;4.67;3.37;;;;;;;;;;731802;189;637740;-77
2022/06/02 12:51:56;;;;;;;3.60;2.93;;;;;;;;;;723438;189;1021396;-75
2022/06/02 12:54:26;;;;;;;10.17;2.87;;;;;;;;;;721778;191;918311;-77
2022/06/02 12:57:08;;;;;;;3.80;3.07;;;;;;;;;;729227;189;917923;-76
2022/06/02 12:59:39;;;;;;;6.13;3.07;;;;;;;;;;733436;189;624830;-77
2022/06/02 13:02:06;;;;;;;4.07;3.10;;;;;;;;;;728715;189;811879;-77
2022/06/02 13:04:47;;;;;;;3.70;2.93;;;;;;;;;;729464;189;918640;-77
2022/06/02 13:07:18;;;;;;;3.83;3.23;;;;;;;;;;738477;189;630217;-77
2022/06/02 13:09:47;;;;;;;5.50;3.03;;;;;;;;;;730640;190;917349;-77
2022/06/02 13:12:29;;;;;;;4.90;3.10;;;;;;;;;;743656;189;627680;-78
2022/06/02 13:14:57;;;;;;;3.60;2.70;;;;;;;;;;731426;190;628786;-78
2022/06/02 13:17:42;;;;;;;5.57;3.53;;;;;;;;;;733986;190;628673;-77
2022/06/02 13:20:14;;;;;;;7.10;3.43;;;;;;;;;;735702;189;632111;-76
2022/06/02 13:22:56;;;;;;;4.50;3.53;;;;;;;;;;728905;189;918559;-77
2022/06/02 13:25:41;;;;;;;3.23;2.93;;;;;;;;;;730951;190;816457;-78
2022/06/02 13:28:07;;;;;;;4.50;2.50;;;;;;;;;;731974;189;626853;-79
2022/06/02 13:30:49;;;;;;;5.43;3.60;;;;;;;;;;736866;188;630300;-78
2022/06/02 13:33:17;;;;;;;4.03;3.17;;;;;;;;;;729722;190;628004;-78
2022/06/02 13:35:59;;;;;;;5.07;3.03;;;;;;;;;;737575;187;626579;-78
2022/06/02 13:38:30;;;;;;;3.50;2.80;;;;;;;;;;735889;191;637796;-78
2022/06/02 13:40:57;;;;;;;6.43;4.20;;;;;;;;;;729239;191;619351;-80
2022/06/02 13:43:38;;;;;;;4.90;3.43;;;;;;;;;;735820;189;626842;-79
2022/06/02 13:46:15;;;;;;;3.67;3.10;;;;;;;;;;731293;191;740918;-79
2022/06/02 13:48:47;;;;;;;5.60;3.30;;;;;;;;;;728089;189;677350;-80
2022/06/02 13:51:26;;;;;;;5.20;3.13;;;;;;;;;;731669;189;904167;-77
2022/06/02 13:59:02;;;;;;;5.77;2.80;;;;;;;;;;731928;189;816371;-79
2022/06/02 14:01:30;;;;;;;3.57;2.50;;;;;;;;;;726462;188;921243;-79
2022/06/02 14:04:02;;;;;;;4.33;3.07;;;;;;;;;;733827;189;905887;-79
2022/06/02 14:06:28;;;;;;;4.70;2.70;;;;;;;;;;727890;186;920048;-79
2022/06/02 14:09:11;;;;;;;3.40;2.73;;;;;;;;;;731647;189;712439;-79
2022/06/02 14:11:42;;;;;;;3.70;1.97;;;;;;;;;;735568;189;630843;-78
2022/06/02 14:14:14;;;;;;;4.70;3.20;;;;;;;;;;731045;189;651940;-80
2022/06/02 14:16:54;;;;;;;7.80;2.63;;;;;;;;;;732014;190;632633;-80
2022/06/02 14:19:21;;;;;;;3.73;2.23;;;;;;;;;;730911;190;633256;-78
2022/06/02 14:21:51;;;;;;;3.50;2.43;;;;;;;;;;728425;189;815337;-78
2022/06/02 14:24:31;;;;;;;3.70;2.37;;;;;;;;;;737198;190;633739;-79
2022/06/02 14:26:57;;;;;;;2.70;2.10;;;;;;;;;;731772;190;626205;-77
2022/06/02 14:29:40;;;;;;;2.97;2.53;;;;;;;;;;735754;187;630803;-79
2022/06/02 14:32:20;;;;;;;3.63;2.10;;;;;;;;;;733160;189;753462;-79
2022/06/02 14:34:46;;;;;;;3.40;2.40;;;;;;;;;;734647;190;819149;-80
2022/06/02 14:37:14;;;;;;;5.53;2.20;;;;;;;;;;732373;190;918606;-80
2022/06/02 14:39:40;;;;;;;2.90;1.80;;;;;;;;;;732374;190;820328;-79
2022/06/02 14:43:03;;;;;;;4.50;2.37;;;;;;;;;;729783;189;641250;-78
2022/06/02 14:44:50;;;;;;;4.17;2.80;;;;;;;;;;730861;189;644523;-79
2022/06/02 14:47:17;;;;;;;3.90;2.40;;;;;;;;;;730425;190;628828;-79
2022/06/02 14:50:00;;;;;;;9.57;5.80;;;;;;;;;;729993;190;632677;-79
2022/06/02 14:52:32;;;;;;;5.93;4.07;;;;;;;;;;723414;189;917062;-77
2022/06/02 14:55:03;;;;;;;3.60;2.50;;;;;;;;;;730845;190;918515;-79
2022/06/02 14:57:30;;;;;;;6.00;4.13;;;;;;;;;;735723;191;627032;-78
2022/06/02 14:59:56;;;;;;;6.67;4.03;;;;;;;;;;727933;189;621942;-79
2022/06/02 15:02:38;;;;;;;3.33;1.93;;;;;;;;;;729347;190;627643;-78
2022/06/02 15:05:08;;;;;;;18.47;8.20;;;;;;;;;;737101;190;623966;-78
2022/06/02 15:07:38;;;;;;;105.30;48.17;;;;;;;;;;732959;191;631011;-77
2022/06/02 15:10:08;;;;;;;5.97;3.63;;;;;;;;;;733736;189;739434;-81